createdAt,value
2018-03-01T00:00:22.993Z,0
2018-03-01T00:01:22.713Z,0
2018-03-01T00:02:22.683Z,0
2018-03-01T00:03:22.658Z,0
2018-03-01T00:04:22.888Z,0
2018-03-01T00:05:22.688Z,0
2018-03-01T00:06:22.844Z,0
2018-03-01T00:07:22.553Z,0
2018-03-01T00:08:22.533Z,0
2018-03-01T00:09:22.245Z,0
2018-03-01T00:10:22.476Z,0
2018-03-01T00:11:22.195Z,0
2018-03-01T00:12:22.691Z,0
2018-03-01T00:13:22.659Z,0
2018-03-01T00:14:22.379Z,0
2018-03-01T00:15:22.608Z,0
2018-03-01T00:16:22.325Z,0
2018-03-01T00:17:22.303Z,0
2018-03-01T00:18:22.013Z,0
2018-03-01T00:19:22.251Z,0
2018-03-01T00:20:22.219Z,0
2018-03-01T00:21:22.195Z,0
2018-03-01T00:22:21.978Z,0
2018-03-01T00:23:22.146Z,0
2018-03-01T00:24:22.381Z,0
2018-03-01T00:25:21.834Z,0
2018-03-01T00:26:22.069Z,0
2018-03-01T00:27:22.042Z,0
2018-03-01T00:28:21.765Z,0
2018-03-01T00:29:22.248Z,0
2018-03-01T00:30:21.963Z,0
2018-03-01T00:31:22.224Z,0
2018-03-01T00:32:21.912Z,0
2018-03-01T00:33:21.887Z,0
2018-03-01T00:34:21.864Z,0
2018-03-01T00:35:22.091Z,0
2018-03-01T00:36:22.073Z,0
2018-03-01T00:37:21.787Z,0
2018-03-01T00:38:21.760Z,0
2018-03-01T00:39:21.475Z,0
2018-03-01T00:40:21.707Z,0
2018-03-01T00:41:21.424Z,0
2018-03-01T00:42:21.666Z,0
2018-03-01T00:43:21.892Z,0
2018-03-01T00:44:21.351Z,0
2018-03-01T00:45:21.588Z,0
2018-03-01T00:46:21.292Z,0
2018-03-01T00:47:21.012Z,0
2018-03-01T00:48:21.757Z,0
2018-03-01T00:49:21.476Z,0
2018-03-01T00:50:21.190Z,0
2018-03-01T00:51:21.426Z,0
2018-03-01T00:52:21.663Z,0
2018-03-01T00:53:21.369Z,0
2018-03-01T00:54:21.344Z,0
2018-03-01T00:55:21.329Z,0
2018-03-01T00:56:21.309Z,0
2018-03-01T00:57:21.535Z,0
2018-03-01T00:58:21.508Z,0
2018-03-01T00:59:21.484Z,0
2018-03-01T01:00:21.201Z,0
2018-03-01T01:01:21.431Z,0
2018-03-01T01:02:21.403Z,0
2018-03-01T01:03:20.864Z,0
2018-03-01T01:04:21.133Z,0
2018-03-01T01:05:21.073Z,0
2018-03-01T01:06:21.041Z,0
2018-03-01T01:07:21.021Z,0
2018-03-01T01:08:20.994Z,0
2018-03-01T01:09:20.964Z,0
2018-03-01T01:10:20.952Z,0
2018-03-01T01:11:21.173Z,0
2018-03-01T01:12:21.018Z,0
2018-03-01T01:13:21.127Z,0
2018-03-01T01:14:21.114Z,0
2018-03-01T01:15:20.822Z,0
2018-03-01T01:16:21.056Z,0
2018-03-01T01:17:21.025Z,0
2018-03-01T01:18:20.992Z,0
2018-03-01T01:19:20.451Z,0
2018-03-01T01:20:20.426Z,0
2018-03-01T01:21:20.929Z,0
2018-03-01T01:22:20.629Z,0
2018-03-01T01:23:20.346Z,0
2018-03-01T01:24:20.982Z,0
2018-03-01T01:25:20.824Z,0
2018-03-01T01:26:20.288Z,0
2018-03-01T01:27:20.243Z,0
2018-03-01T01:28:20.483Z,0
2018-03-01T01:29:20.450Z,0
2018-03-01T01:30:20.431Z,0
2018-03-01T01:31:20.877Z,0
2018-03-01T01:32:20.379Z,0
2018-03-01T01:33:20.605Z,0
2018-03-01T01:34:20.326Z,0
2018-03-01T01:35:20.294Z,0
2018-03-01T01:36:20.010Z,0
2018-03-01T01:37:20.505Z,0
2018-03-01T01:38:20.229Z,0
2018-03-01T01:39:20.203Z,0
2018-03-01T01:40:20.168Z,0
2018-03-01T01:41:19.886Z,0
2018-03-01T01:42:20.118Z,0
2018-03-01T01:43:20.115Z,0
2018-03-01T01:44:20.322Z,0
2018-03-01T01:45:20.291Z,0
2018-03-01T01:46:20.018Z,0
2018-03-01T01:47:20.248Z,0
2018-03-01T01:48:19.987Z,0
2018-03-01T01:49:20.237Z,0
2018-03-01T01:50:19.649Z,0
2018-03-01T01:51:20.148Z,0
2018-03-01T01:52:19.871Z,0
2018-03-01T01:53:19.570Z,0
2018-03-01T01:54:19.799Z,0
2018-03-01T01:55:19.775Z,0
2018-03-01T01:56:20.009Z,0
2018-03-01T01:57:19.980Z,0
2018-03-01T01:58:19.702Z,0
2018-03-01T01:59:19.412Z,0
2018-03-01T02:00:19.904Z,0
2018-03-01T02:01:19.630Z,0
2018-03-01T02:02:19.595Z,0
2018-03-01T02:03:20.540Z,0
2018-03-01T02:04:19.275Z,0
2018-03-01T02:05:19.510Z,0
2018-03-01T02:06:19.479Z,0
2018-03-01T02:07:19.454Z,0
2018-03-01T02:08:19.432Z,0
2018-03-01T02:09:19.419Z,0
2018-03-01T02:10:19.127Z,0
2018-03-01T02:11:19.363Z,0
2018-03-01T02:12:19.333Z,0
2018-03-01T02:13:19.310Z,0
2018-03-01T02:14:19.302Z,0
2018-03-01T02:15:19.256Z,0
2018-03-01T02:16:19.231Z,0
2018-03-01T02:17:19.477Z,0
2018-03-01T02:18:19.180Z,0
2018-03-01T02:19:19.406Z,0
2018-03-01T02:20:19.124Z,0
2018-03-01T02:21:19.358Z,0
2018-03-01T02:22:19.331Z,0
2018-03-01T02:23:18.797Z,0
2018-03-01T02:24:19.018Z,0
2018-03-01T02:25:18.731Z,0
2018-03-01T02:26:19.223Z,0
2018-03-01T02:27:18.694Z,0
2018-03-01T02:28:18.910Z,0
2018-03-01T02:29:18.889Z,0
2018-03-01T02:30:18.870Z,0
2018-03-01T02:31:19.105Z,0
2018-03-01T02:32:18.813Z,0
2018-03-01T02:33:19.063Z,0
2018-03-01T02:34:19.019Z,0
2018-03-01T02:35:18.735Z,0
2018-03-01T02:36:18.452Z,0
2018-03-01T02:37:18.944Z,0
2018-03-01T02:38:18.663Z,0
2018-03-01T02:39:18.892Z,0
2018-03-01T02:40:18.356Z,0
2018-03-01T02:41:18.575Z,0
2018-03-01T02:42:18.289Z,0
2018-03-01T02:43:18.781Z,0
2018-03-01T02:44:18.758Z,0
2018-03-01T02:45:18.214Z,0
2018-03-01T02:46:18.448Z,0
2018-03-01T02:47:18.672Z,0
2018-03-01T02:48:18.651Z,0
2018-03-01T02:49:18.376Z,0
2018-03-01T02:50:18.603Z,0
2018-03-01T02:51:18.577Z,0
2018-03-01T02:52:18.286Z,0
2018-03-01T02:53:18.263Z,0
2018-03-01T02:54:18.289Z,0
2018-03-01T02:55:18.467Z,0
2018-03-01T02:56:18.437Z,0
2018-03-01T02:57:18.155Z,0
2018-03-01T02:58:18.131Z,0
2018-03-01T02:59:18.360Z,0
2018-03-01T03:00:18.334Z,0
2018-03-01T03:01:18.052Z,0
2018-03-01T03:02:17.764Z,0
2018-03-01T03:03:18.007Z,0
2018-03-01T03:04:17.973Z,0
2018-03-01T03:05:17.938Z,0
2018-03-01T03:06:18.178Z,0
2018-03-01T03:07:17.896Z,0
2018-03-01T03:08:17.658Z,0
2018-03-01T03:09:18.096Z,0
2018-03-01T03:10:17.806Z,0
2018-03-01T03:11:17.785Z,0
2018-03-01T03:12:17.502Z,0
2018-03-01T03:13:17.730Z,0
2018-03-01T03:14:17.968Z,0
2018-03-01T03:15:17.943Z,0
2018-03-01T03:16:17.658Z,0
2018-03-01T03:17:17.888Z,0
2018-03-01T03:18:17.347Z,0
2018-03-01T03:19:17.575Z,0
2018-03-01T03:20:17.557Z,0
2018-03-01T03:21:17.526Z,0
2018-03-01T03:22:17.236Z,0
2018-03-01T03:23:17.472Z,0
2018-03-01T03:24:17.710Z,0
2018-03-01T03:25:17.692Z,0
2018-03-01T03:26:17.394Z,0
2018-03-01T03:27:17.366Z,0
2018-03-01T03:28:17.088Z,0
2018-03-01T03:29:17.321Z,0
2018-03-01T03:30:17.567Z,0
2018-03-01T03:31:17.534Z,0
2018-03-01T03:32:17.498Z,0
2018-03-01T03:33:17.474Z,0
2018-03-01T03:34:17.186Z,0
2018-03-01T03:35:16.898Z,0
2018-03-01T03:36:17.130Z,0
2018-03-01T03:37:16.844Z,0
2018-03-01T03:38:17.079Z,0
2018-03-01T03:39:17.317Z,0
2018-03-01T03:40:17.029Z,0
2018-03-01T03:41:16.998Z,0
2018-03-01T03:42:16.975Z,0
2018-03-01T03:43:16.949Z,0
2018-03-01T03:44:16.930Z,0
2018-03-01T03:45:16.638Z,0
2018-03-01T03:46:16.881Z,0
2018-03-01T03:47:16.855Z,0
2018-03-01T03:48:16.820Z,0
2018-03-01T03:49:16.792Z,0
2018-03-01T03:50:17.028Z,0
2018-03-01T03:51:16.225Z,0
2018-03-01T03:52:16.972Z,0
2018-03-01T03:53:16.947Z,0
2018-03-01T03:54:16.926Z,0
2018-03-01T03:55:16.634Z,0
2018-03-01T03:56:16.609Z,0
2018-03-01T03:57:16.581Z,0
2018-03-01T03:58:16.566Z,0
2018-03-01T03:59:16.789Z,0
2018-03-01T04:00:16.245Z,0
2018-03-01T04:01:16.744Z,0
2018-03-01T04:02:16.759Z,0
2018-03-01T04:03:16.691Z,0
2018-03-01T04:04:16.145Z,0
2018-03-01T04:05:16.378Z,0
2018-03-01T04:06:16.088Z,0
2018-03-01T04:07:16.328Z,0
2018-03-01T04:08:16.039Z,0
2018-03-01T04:09:16.531Z,0
2018-03-01T04:10:16.514Z,0
2018-03-01T04:11:16.223Z,0
2018-03-01T04:12:16.459Z,0
2018-03-01T04:13:16.168Z,0
2018-03-01T04:14:16.141Z,0
2018-03-01T04:15:16.131Z,0
2018-03-01T04:16:16.344Z,0
2018-03-01T04:17:16.322Z,0
2018-03-01T04:18:16.295Z,0
2018-03-01T04:19:15.750Z,0
2018-03-01T04:20:16.243Z,0
2018-03-01T04:21:15.956Z,0
2018-03-01T04:22:15.938Z,0
2018-03-01T04:23:15.908Z,0
2018-03-01T04:24:15.879Z,0
2018-03-01T04:25:16.120Z,0
2018-03-01T04:26:15.830Z,0
2018-03-01T04:27:16.058Z,0
2018-03-01T04:28:16.038Z,0
2018-03-01T04:29:15.750Z,0
2018-03-01T04:30:15.984Z,0
2018-03-01T04:31:15.959Z,0
2018-03-01T04:32:15.669Z,0
2018-03-01T04:33:15.644Z,0
2018-03-01T04:34:15.360Z,0
2018-03-01T04:35:15.851Z,0
2018-03-01T04:36:15.052Z,0
2018-03-01T04:37:15.555Z,0
2018-03-01T04:38:15.513Z,0
2018-03-01T04:39:15.496Z,0
2018-03-01T04:40:15.465Z,0
2018-03-01T04:41:15.179Z,0
2018-03-01T04:42:15.667Z,0
2018-03-01T04:43:15.381Z,0
2018-03-01T04:44:15.356Z,0
2018-03-01T04:45:15.329Z,0
2018-03-01T04:46:15.305Z,0
2018-03-01T04:47:15.600Z,0
2018-03-01T04:48:15.253Z,0
2018-03-01T04:49:15.229Z,0
2018-03-01T04:50:14.938Z,0
2018-03-01T04:51:14.914Z,0
2018-03-01T04:52:15.408Z,0
2018-03-01T04:53:14.864Z,0
2018-03-01T04:54:15.353Z,0
2018-03-01T04:55:15.339Z,0
2018-03-01T04:56:15.039Z,0
2018-03-01T04:57:15.014Z,0
2018-03-01T04:58:15.267Z,0
2018-03-01T04:59:14.706Z,0
2018-03-01T05:00:14.937Z,0
2018-03-01T05:01:14.915Z,0
2018-03-01T05:02:15.145Z,0
2018-03-01T05:03:15.121Z,0
2018-03-01T05:04:14.830Z,0
2018-03-01T05:05:14.806Z,0
2018-03-01T05:06:14.786Z,0
2018-03-01T05:07:14.759Z,0
2018-03-01T05:08:14.725Z,0
2018-03-01T05:09:14.961Z,0
2018-03-01T05:10:14.673Z,0
2018-03-01T05:11:14.910Z,0
2018-03-01T05:12:14.877Z,0
2018-03-01T05:13:14.596Z,0
2018-03-01T05:14:14.566Z,0
2018-03-01T05:15:14.801Z,0
2018-03-01T05:16:14.860Z,0
2018-03-01T05:17:14.499Z,0
2018-03-01T05:18:14.464Z,0
2018-03-01T05:19:14.439Z,0
2018-03-01T05:20:14.682Z,0
2018-03-01T05:21:14.386Z,0
2018-03-01T05:22:14.364Z,0
2018-03-01T05:23:14.595Z,0
2018-03-01T05:24:14.310Z,0
2018-03-01T05:25:14.540Z,4
2018-03-01T05:26:14.514Z,0
2018-03-01T05:27:14.480Z,4
2018-03-01T05:28:14.462Z,4
2018-03-01T05:29:14.187Z,4
2018-03-01T05:30:14.413Z,4
2018-03-01T05:31:14.398Z,8
2018-03-01T05:32:14.351Z,8
2018-03-01T05:33:14.330Z,8
2018-03-01T05:34:14.041Z,8
2018-03-01T05:35:14.280Z,12
2018-03-01T05:36:13.736Z,12
2018-03-01T05:37:14.222Z,12
2018-03-01T05:38:14.203Z,16
2018-03-01T05:39:14.175Z,20
2018-03-01T05:40:13.888Z,28
2018-03-01T05:41:14.124Z,28
2018-03-01T05:42:14.101Z,36
2018-03-01T05:43:13.815Z,40
2018-03-01T05:44:14.046Z,44
2018-03-01T05:45:13.762Z,52
2018-03-01T05:46:13.735Z,56
2018-03-01T05:47:13.705Z,68
2018-03-01T05:48:13.963Z,76
2018-03-01T05:49:13.395Z,84
2018-03-01T05:50:13.886Z,96
2018-03-01T05:51:13.606Z,108
2018-03-01T05:52:13.827Z,120
2018-03-01T05:53:13.555Z,136
2018-03-01T05:54:13.008Z,152
2018-03-01T05:55:13.758Z,168
2018-03-01T05:56:13.726Z,184
2018-03-01T05:57:13.441Z,204
2018-03-01T05:58:13.677Z,224
2018-03-01T05:59:13.652Z,248
2018-03-01T06:00:13.627Z,268
2018-03-01T06:01:13.344Z,288
2018-03-01T06:02:13.320Z,308
2018-03-01T06:03:13.031Z,328
2018-03-01T06:04:13.534Z,352
2018-03-01T06:05:13.494Z,376
2018-03-01T06:06:13.207Z,404
2018-03-01T06:07:13.442Z,432
2018-03-01T06:08:13.416Z,460
2018-03-01T06:09:12.874Z,488
2018-03-01T06:10:12.847Z,516
2018-03-01T06:11:13.345Z,544
2018-03-01T06:12:12.796Z,572
2018-03-01T06:13:13.288Z,604
2018-03-01T06:14:13.266Z,632
2018-03-01T06:15:13.259Z,664
2018-03-01T06:16:12.958Z,692
2018-03-01T06:17:12.929Z,720
2018-03-01T06:18:13.154Z,756
2018-03-01T06:19:13.138Z,788
2018-03-01T06:20:13.103Z,828
2018-03-01T06:21:13.073Z,860
2018-03-01T06:22:12.786Z,888
2018-03-01T06:23:12.763Z,924
2018-03-01T06:24:12.737Z,956
2018-03-01T06:25:12.978Z,992
2018-03-01T06:26:12.953Z,1020
2018-03-01T06:27:12.918Z,1052
2018-03-01T06:28:12.376Z,1080
2018-03-01T06:29:12.604Z,1112
2018-03-01T06:30:12.578Z,1132
2018-03-01T06:31:12.550Z,1160
2018-03-01T06:32:12.268Z,1192
2018-03-01T06:33:12.494Z,1224
2018-03-01T06:34:12.728Z,1252
2018-03-01T06:35:12.713Z,1280
2018-03-01T06:36:11.906Z,1308
2018-03-01T06:37:12.396Z,1336
2018-03-01T06:38:12.636Z,1360
2018-03-01T06:39:12.345Z,1388
2018-03-01T06:40:12.583Z,1412
2018-03-01T06:41:12.034Z,1440
2018-03-01T06:42:12.271Z,1460
2018-03-01T06:43:11.980Z,1480
2018-03-01T06:44:12.213Z,1504
2018-03-01T06:45:12.195Z,1524
2018-03-01T06:46:12.162Z,1544
2018-03-01T06:47:11.877Z,1560
2018-03-01T06:48:12.368Z,1584
2018-03-01T06:49:12.222Z,1604
2018-03-01T06:50:12.058Z,1632
2018-03-01T06:51:11.776Z,1656
2018-03-01T06:52:11.743Z,1680
2018-03-01T06:53:11.982Z,1700
2018-03-01T06:54:12.207Z,1716
2018-03-01T06:55:11.928Z,1732
2018-03-01T06:56:11.901Z,1752
2018-03-01T06:57:12.131Z,1780
2018-03-01T06:58:11.847Z,1796
2018-03-01T06:59:12.120Z,1812
2018-03-01T07:00:11.790Z,1832
2018-03-01T07:01:12.024Z,1856
2018-03-01T07:02:11.480Z,1872
2018-03-01T07:03:11.980Z,1888
2018-03-01T07:04:11.687Z,1912
2018-03-01T07:05:11.668Z,1932
2018-03-01T07:06:11.896Z,1948
2018-03-01T07:07:11.610Z,1968
2018-03-01T07:08:11.844Z,1984
2018-03-01T07:09:11.563Z,2008
2018-03-01T07:10:11.274Z,2020
2018-03-01T07:11:11.350Z,2040
2018-03-01T07:12:11.741Z,2068
2018-03-01T07:13:11.711Z,2088
2018-03-01T07:14:11.698Z,2108
2018-03-01T07:15:11.405Z,2128
2018-03-01T07:16:10.858Z,2152
2018-03-01T07:17:11.613Z,2172
2018-03-01T07:18:11.322Z,2192
2018-03-01T07:19:11.297Z,2204
2018-03-01T07:20:11.540Z,2224
2018-03-01T07:21:11.245Z,2244
2018-03-01T07:22:11.218Z,2264
2018-03-01T07:23:11.450Z,2280
2018-03-01T07:24:11.173Z,2296
2018-03-01T07:25:11.146Z,2304
2018-03-01T07:26:11.117Z,2312
2018-03-01T07:27:10.832Z,2320
2018-03-01T07:28:11.070Z,2324
2018-03-01T07:29:11.040Z,2340
2018-03-01T07:30:10.762Z,2360
2018-03-01T07:31:10.993Z,2372
2018-03-01T07:32:10.965Z,2372
2018-03-01T07:33:11.079Z,2384
2018-03-01T07:34:10.918Z,2392
2018-03-01T07:35:10.889Z,2396
2018-03-01T07:36:10.859Z,2404
2018-03-01T07:37:11.142Z,2420
2018-03-01T07:38:10.549Z,2424
2018-03-01T07:39:10.818Z,2424
2018-03-01T07:40:11.017Z,2432
2018-03-01T07:41:10.734Z,2444
2018-03-01T07:42:10.711Z,2460
2018-03-01T07:43:10.700Z,2476
2018-03-01T07:44:10.655Z,2488
2018-03-01T07:45:10.632Z,2500
2018-03-01T07:46:10.348Z,2500
2018-03-01T07:47:10.584Z,2512
2018-03-01T07:48:10.823Z,2532
2018-03-01T07:49:10.528Z,2552
2018-03-01T07:50:10.509Z,2564
2018-03-01T07:51:10.572Z,2568
2018-03-01T07:52:10.708Z,2584
2018-03-01T07:53:09.913Z,2560
2018-03-01T07:54:10.407Z,2572
2018-03-01T07:55:10.383Z,2572
2018-03-01T07:56:10.102Z,2620
2018-03-01T07:57:10.325Z,2644
2018-03-01T07:58:10.561Z,2612
2018-03-01T07:59:10.274Z,2632
2018-03-01T08:00:10.000Z,2624
2018-03-01T08:01:10.242Z,2644
2018-03-01T08:02:10.202Z,2672
2018-03-01T08:03:10.435Z,2700
2018-03-01T08:04:10.156Z,2728
2018-03-01T08:05:09.866Z,2760
2018-03-01T08:06:10.099Z,2768
2018-03-01T08:07:09.821Z,2768
2018-03-01T08:08:10.313Z,2780
2018-03-01T08:09:10.028Z,2772
2018-03-01T08:10:09.741Z,2756
2018-03-01T08:11:09.975Z,2776
2018-03-01T08:12:10.214Z,2744
2018-03-01T08:13:09.923Z,2800
2018-03-01T08:14:09.642Z,2788
2018-03-01T08:15:09.879Z,2828
2018-03-01T08:16:10.110Z,2884
2018-03-01T08:17:09.889Z,2968
2018-03-01T08:18:09.801Z,3012
2018-03-01T08:19:09.519Z,3016
2018-03-01T08:20:09.756Z,3024
2018-03-01T08:21:09.985Z,3024
2018-03-01T08:22:09.959Z,3016
2018-03-01T08:23:09.932Z,3020
2018-03-01T08:24:09.656Z,3028
2018-03-01T08:25:09.372Z,3008
2018-03-01T08:26:09.862Z,3004
2018-03-01T08:27:09.580Z,3008
2018-03-01T08:28:09.296Z,2996
2018-03-01T08:29:09.530Z,2976
2018-03-01T08:30:09.512Z,2980
2018-03-01T08:31:09.480Z,2960
2018-03-01T08:32:09.718Z,2964
2018-03-01T08:33:09.439Z,2988
2018-03-01T08:34:09.407Z,2980
2018-03-01T08:35:09.642Z,3004
2018-03-01T08:36:09.617Z,3020
2018-03-01T08:37:09.077Z,3020
2018-03-01T08:38:09.567Z,3024
2018-03-01T08:39:09.545Z,3000
2018-03-01T08:40:09.264Z,3012
2018-03-01T08:41:09.498Z,3024
2018-03-01T08:42:09.215Z,3024
2018-03-01T08:43:09.191Z,3036
2018-03-01T08:44:09.171Z,3060
2018-03-01T08:45:09.142Z,3064
2018-03-01T08:46:09.114Z,3060
2018-03-01T08:47:09.350Z,3068
2018-03-01T08:48:09.068Z,3048
2018-03-01T08:49:09.298Z,2980
2018-03-01T08:50:09.281Z,2928
2018-03-01T08:51:08.994Z,2904
2018-03-01T08:52:08.713Z,2844
2018-03-01T08:53:08.429Z,2956
2018-03-01T08:54:08.955Z,3012
2018-03-01T08:55:09.178Z,3004
2018-03-01T08:56:08.617Z,3048
2018-03-01T08:57:09.114Z,3096
2018-03-01T08:58:09.083Z,3148
2018-03-01T08:59:09.076Z,3192
2018-03-01T09:00:08.784Z,3232
2018-03-01T09:01:09.021Z,3268
2018-03-01T09:02:08.996Z,3296
2018-03-01T09:03:08.195Z,3332
2018-03-01T09:04:08.686Z,3360
2018-03-01T09:05:08.408Z,3344
2018-03-01T09:06:08.650Z,3288
2018-03-01T09:07:08.619Z,3308
2018-03-01T09:08:08.857Z,3312
2018-03-01T09:09:08.313Z,3356
2018-03-01T09:10:08.554Z,3472
2018-03-01T09:11:08.791Z,3596
2018-03-01T09:12:08.769Z,3640
2018-03-01T09:13:08.733Z,3664
2018-03-01T09:14:08.202Z,3716
2018-03-01T09:15:08.698Z,3764
2018-03-01T09:16:08.417Z,3708
2018-03-01T09:17:08.390Z,3704
2018-03-01T09:18:08.628Z,3640
2018-03-01T09:19:08.086Z,3880
2018-03-01T09:20:08.321Z,3892
2018-03-01T09:21:08.298Z,3840
2018-03-01T09:22:08.536Z,3732
2018-03-01T09:23:08.252Z,3784
2018-03-01T09:24:08.485Z,3800
2018-03-01T09:25:08.470Z,3832
2018-03-01T09:26:08.186Z,3828
2018-03-01T09:27:08.167Z,3856
2018-03-01T09:28:07.877Z,3924
2018-03-01T09:29:07.858Z,3948
2018-03-01T09:30:08.353Z,3952
2018-03-01T09:31:08.334Z,3964
2018-03-01T09:32:08.041Z,3912
2018-03-01T09:33:08.282Z,3920
2018-03-01T09:34:08.004Z,3912
2018-03-01T09:35:07.974Z,3860
2018-03-01T09:36:07.697Z,3800
2018-03-01T09:37:07.675Z,3588
2018-03-01T09:38:08.173Z,3248
2018-03-01T09:39:07.895Z,3648
2018-03-01T09:40:07.863Z,3672
2018-03-01T09:41:07.846Z,3684
2018-03-01T09:42:07.826Z,3684
2018-03-01T09:43:08.059Z,3724
2018-03-01T09:44:08.035Z,3692
2018-03-01T09:45:07.498Z,3728
2018-03-01T09:46:07.997Z,3744
2018-03-01T09:47:07.965Z,3744
2018-03-01T09:48:07.687Z,3780
2018-03-01T09:49:07.662Z,3780
2018-03-01T09:50:07.640Z,3772
2018-03-01T09:51:07.673Z,3748
2018-03-01T09:52:07.336Z,3812
2018-03-01T09:53:07.577Z,3836
2018-03-01T09:54:07.300Z,3876
2018-03-01T09:55:07.533Z,3896
2018-03-01T09:56:07.518Z,3944
2018-03-01T09:57:07.751Z,4008
2018-03-01T09:58:07.817Z,4048
2018-03-01T09:59:07.195Z,4040
2018-03-01T10:00:07.168Z,4060
2018-03-01T10:01:07.399Z,4024
2018-03-01T10:02:07.652Z,3988
2018-03-01T10:03:07.361Z,3972
2018-03-01T10:04:07.340Z,3920
2018-03-01T10:05:07.071Z,3892
2018-03-01T10:06:07.552Z,3920
2018-03-01T10:07:07.750Z,3968
2018-03-01T10:08:07.254Z,4000
2018-03-01T10:09:06.712Z,4064
2018-03-01T10:10:07.213Z,4160
2018-03-01T10:11:06.928Z,4252
2018-03-01T10:12:07.170Z,4308
2018-03-01T10:13:07.148Z,4304
2018-03-01T10:14:07.121Z,4260
2018-03-01T10:15:07.362Z,4212
2018-03-01T10:16:07.081Z,4168
2018-03-01T10:17:07.499Z,4100
2018-03-01T10:18:07.305Z,4056
2018-03-01T10:19:07.278Z,4008
2018-03-01T10:20:06.996Z,3964
2018-03-01T10:21:07.235Z,3952
2018-03-01T10:22:06.960Z,3944
2018-03-01T10:23:06.929Z,3936
2018-03-01T10:24:06.913Z,3940
2018-03-01T10:25:06.652Z,3940
2018-03-01T10:26:06.868Z,3924
2018-03-01T10:27:07.104Z,3932
2018-03-01T10:28:07.086Z,3940
2018-03-01T10:29:07.064Z,3932
2018-03-01T10:30:07.044Z,3896
2018-03-01T10:31:07.060Z,3860
2018-03-01T10:32:06.736Z,3828
2018-03-01T10:33:06.976Z,3824
2018-03-01T10:34:06.964Z,3820
2018-03-01T10:35:06.679Z,3796
2018-03-01T10:36:06.661Z,3784
2018-03-01T10:37:07.049Z,3760
2018-03-01T10:38:06.869Z,3760
2018-03-01T10:39:07.004Z,3748
2018-03-01T10:40:06.829Z,3720
2018-03-01T10:41:06.324Z,3724
2018-03-01T10:42:06.783Z,3732
2018-03-01T10:43:06.768Z,3692
2018-03-01T10:44:06.746Z,3684
2018-03-01T10:45:06.728Z,3748
2018-03-01T10:46:06.442Z,3824
2018-03-01T10:47:06.728Z,3844
2018-03-01T10:48:06.404Z,3828
2018-03-01T10:49:06.663Z,3768
2018-03-01T10:50:06.620Z,3808
2018-03-01T10:51:06.594Z,3716
2018-03-01T10:52:06.573Z,3752
2018-03-01T10:53:06.292Z,3724
2018-03-01T10:54:06.533Z,3688
2018-03-01T10:55:06.254Z,3660
2018-03-01T10:56:06.492Z,3632
2018-03-01T10:57:06.207Z,3624
2018-03-01T10:58:06.181Z,3632
2018-03-01T10:59:06.422Z,3620
2018-03-01T11:00:06.408Z,3612
2018-03-01T11:01:06.123Z,3604
2018-03-01T11:02:05.843Z,3616
2018-03-01T11:03:05.818Z,3612
2018-03-01T11:04:06.055Z,3604
2018-03-01T11:05:05.775Z,3592
2018-03-01T11:06:06.016Z,3588
2018-03-01T11:07:05.993Z,3564
2018-03-01T11:08:05.975Z,3572
2018-03-01T11:09:06.207Z,3556
2018-03-01T11:10:05.936Z,3540
2018-03-01T11:11:05.390Z,3556
2018-03-01T11:12:05.887Z,3556
2018-03-01T11:13:05.864Z,3540
2018-03-01T11:14:06.103Z,3528
2018-03-01T11:15:05.304Z,3524
2018-03-01T11:16:06.055Z,3516
2018-03-01T11:17:05.776Z,3516
2018-03-01T11:18:05.502Z,3512
2018-03-01T11:19:05.741Z,3504
2018-03-01T11:20:05.715Z,3504
2018-03-01T11:21:05.434Z,3492
2018-03-01T11:22:05.999Z,3488
2018-03-01T11:23:05.912Z,3480
2018-03-01T11:24:05.629Z,3456
2018-03-01T11:25:05.869Z,3448
2018-03-01T11:26:05.585Z,3432
2018-03-01T11:27:05.307Z,3436
2018-03-01T11:28:05.547Z,3440
2018-03-01T11:29:05.785Z,3464
2018-03-01T11:30:05.761Z,3468
2018-03-01T11:31:05.741Z,3452
2018-03-01T11:32:05.202Z,3460
2018-03-01T11:33:05.700Z,3464
2018-03-01T11:34:05.158Z,3452
2018-03-01T11:35:05.774Z,3432
2018-03-01T11:36:05.115Z,3408
2018-03-01T11:37:04.839Z,3404
2018-03-01T11:38:05.589Z,3400
2018-03-01T11:39:05.320Z,3392
2018-03-01T11:40:05.296Z,3364
2018-03-01T11:41:05.012Z,3368
2018-03-01T11:42:04.990Z,3364
2018-03-01T11:43:05.484Z,3372
2018-03-01T11:44:05.468Z,3376
2018-03-01T11:45:05.184Z,3364
2018-03-01T11:46:05.429Z,3344
2018-03-01T11:47:05.140Z,3340
2018-03-01T11:48:05.119Z,3312
2018-03-01T11:49:05.361Z,3304
2018-03-01T11:50:05.080Z,3292
2018-03-01T11:51:05.320Z,3284
2018-03-01T11:52:05.038Z,3284
2018-03-01T11:53:05.020Z,3288
2018-03-01T11:54:04.998Z,3272
2018-03-01T11:55:05.229Z,3264
2018-03-01T11:56:04.956Z,3260
2018-03-01T11:57:04.674Z,3260
2018-03-01T11:58:04.905Z,3228
2018-03-01T11:59:04.900Z,3188
2018-03-01T12:00:04.890Z,3124
2018-03-01T12:01:04.850Z,3144
2018-03-01T12:02:04.566Z,3168
2018-03-01T12:03:04.811Z,3160
2018-03-01T12:04:05.257Z,3140
2018-03-01T12:05:05.032Z,3128
2018-03-01T12:06:04.746Z,3132
2018-03-01T12:07:04.721Z,3120
2018-03-01T12:08:04.707Z,3100
2018-03-01T12:09:04.424Z,3080
2018-03-01T12:10:04.926Z,3064
2018-03-01T12:11:04.900Z,3052
2018-03-01T12:12:04.620Z,3028
2018-03-01T12:13:04.600Z,3028
2018-03-01T12:14:04.836Z,3020
2018-03-01T12:15:04.567Z,3036
2018-03-01T12:16:04.798Z,3036
2018-03-01T12:17:04.518Z,3040
2018-03-01T12:18:04.759Z,3020
2018-03-01T12:19:04.481Z,2988
2018-03-01T12:20:04.720Z,2912
2018-03-01T12:21:04.690Z,2912
2018-03-01T12:22:04.479Z,2932
2018-03-01T12:23:04.403Z,2928
2018-03-01T12:24:04.114Z,2924
2018-03-01T12:25:04.352Z,2920
2018-03-01T12:26:04.325Z,2916
2018-03-01T12:27:04.589Z,2912
2018-03-01T12:28:04.287Z,2932
2018-03-01T12:29:04.519Z,2928
2018-03-01T12:30:04.520Z,2872
2018-03-01T12:31:04.226Z,2904
2018-03-01T12:32:04.214Z,2932
2018-03-01T12:33:04.183Z,2920
2018-03-01T12:34:03.904Z,2908
2018-03-01T12:35:04.143Z,2892
2018-03-01T12:36:03.869Z,2872
2018-03-01T12:37:04.378Z,2872
2018-03-01T12:38:04.347Z,2856
2018-03-01T12:39:04.067Z,2848
2018-03-01T12:40:04.312Z,2840
2018-03-01T12:41:04.283Z,2848
2018-03-01T12:42:04.003Z,2864
2018-03-01T12:43:04.237Z,2872
2018-03-01T12:44:03.959Z,2872
2018-03-01T12:45:03.941Z,2868
2018-03-01T12:46:04.044Z,2856
2018-03-01T12:47:04.159Z,2856
2018-03-01T12:48:03.876Z,2852
2018-03-01T12:49:04.116Z,2844
2018-03-01T12:50:04.094Z,2836
2018-03-01T12:51:04.071Z,2836
2018-03-01T12:52:03.835Z,2836
2018-03-01T12:53:04.042Z,2840
2018-03-01T12:54:04.008Z,2844
2018-03-01T12:55:03.991Z,2848
2018-03-01T12:56:03.971Z,2844
2018-03-01T12:57:03.951Z,2836
2018-03-01T12:58:03.411Z,2824
2018-03-01T12:59:03.651Z,2812
2018-03-01T13:00:03.893Z,2808
2018-03-01T13:01:03.345Z,2800
2018-03-01T13:02:03.585Z,2784
2018-03-01T13:03:03.825Z,2788
2018-03-01T13:04:03.798Z,2792
2018-03-01T13:05:03.525Z,2792
2018-03-01T13:06:03.762Z,2788
2018-03-01T13:07:03.479Z,2784
2018-03-01T13:08:03.214Z,2772
2018-03-01T13:09:03.698Z,2788
2018-03-01T13:10:03.680Z,2776
2018-03-01T13:11:03.660Z,2764
2018-03-01T13:12:03.639Z,2756
2018-03-01T13:13:03.616Z,2764
2018-03-01T13:14:03.595Z,2768
2018-03-01T13:15:03.388Z,2768
2018-03-01T13:16:03.295Z,2752
2018-03-01T13:17:03.277Z,2744
2018-03-01T13:18:03.251Z,2740
2018-03-01T13:19:03.491Z,2736
2018-03-01T13:20:03.208Z,2748
2018-03-01T13:21:03.240Z,2736
2018-03-01T13:22:03.171Z,2732
2018-03-01T13:23:03.153Z,2728
2018-03-01T13:24:03.126Z,2736
2018-03-01T13:25:03.373Z,2744
2018-03-01T13:26:03.348Z,2752
2018-03-01T13:27:02.815Z,2748
2018-03-01T13:28:03.308Z,2752
2018-03-01T13:29:03.025Z,2752
2018-03-01T13:30:02.746Z,2744
2018-03-01T13:31:02.984Z,2744
2018-03-01T13:32:02.702Z,2752
2018-03-01T13:33:02.948Z,2748
2018-03-01T13:34:02.926Z,2732
2018-03-01T13:35:02.641Z,2728
2018-03-01T13:36:03.141Z,2720
2018-03-01T13:37:03.226Z,2720
2018-03-01T13:38:03.104Z,2720
2018-03-01T13:39:02.826Z,2704
2018-03-01T13:40:03.112Z,2700
2018-03-01T13:41:03.035Z,2692
2018-03-01T13:42:03.043Z,2692
2018-03-01T13:43:02.740Z,2684
2018-03-01T13:44:02.975Z,2684
2018-03-01T13:45:02.958Z,2684
2018-03-01T13:46:02.930Z,2672
2018-03-01T13:47:02.918Z,2664
2018-03-01T13:48:02.637Z,2660
2018-03-01T13:49:02.870Z,2656
2018-03-01T13:50:02.848Z,2660
2018-03-01T13:51:02.579Z,2660
2018-03-01T13:52:02.296Z,2648
2018-03-01T13:53:02.793Z,2648
2018-03-01T13:54:02.769Z,2644